Terminal Aerodrome Forecast
Issued by NWS Sioux Falls, SD

Home | Current Version | Previous Version | Graphics & Text | Print | Product List | Glossary Off
Versions: 1 2 3 4 5 6 7 8 9 10 11 12 13 14 15 16 17 18 19 20 21 22 23 24 25 26 27 28

001
FTUS43 KFSD 240522
TAFSUX
TAF
KSUX 240522Z 2406/2506 08005KT P6SM SCT250
     FM241300 VRB03KT P6SM BKN070
     FM241700 01007KT P6SM VCSH SCT050 BKN070=

USA.gov is the U.S. government's official web portal to all federal, state and local government web resources and services.